Angler Guide Weather for Mayo -
Mayo, Yukon Territory Current Weather Conditions
Enter your "Place, State", US Zip Code or ICAO:  
Forecast Information Radar Information
Mayo, Yukon Territory, Canada  Lat: 63.60N, Lon: 135.87W
ICAO Used: CYDA
Current Conditions
Updated:
Sun & Moon Information:
Temp: N/A
Humidity: N/A
Wind Speed: N/A
Barometer: N/A
Dewpoint: N/A
Heat Index: N/A
Wind Chill: N/A
Civil Twilight: 9:26 AM PST
Moonrise: 5:46 AM PST Moon Phase:
Waning Crescent Moon
Waning Crescent Moon
Moonset: 2:49 PM PST
Sunrise: 10:40 AM PST
Sunset: 3:13 PM PST
Civil Twilight: 4:27 PM PST
Forecast for Mayo, YK:
(Forecast based on TAF for )
1038 AM PST MON NOV 06 2006
  
MORNINGAFTERNOON
PARTLY CLOUDYMOSTLY CLOUDY
Partly
Cloudy
Mostly
Cloudy
TAF based forecast:
Dated: 1038 AM PST MON NOV 06 2006
Morning...Partly cloudy with winds variable at 3 mph. Then mostly cloudy with a 30 percent chance of ice crystals.
Afternoon...Mostly cloudy with a 30 percent chance of ice crystals.
Original Encoded TAF:
Dated: 1038 AM PST MON NOV 06 2006
2006/11/06 18:38
CYDA 061838Z 061923 VRB03KT P6SM FEW015 PROB30 1923 5SM IC BKN015=




Powered by Angler Guide.com
Copyright 2007, all rights reserved.